Oakbrook, Washington
Current Conditions -  °F | °C
As of 6:00 AM on Thursday 30 Oct 2014 (Local Time) from KTCM Reporting Station
Light Rain Light Rain  
Wind Chill: 11°   Ceiling: 9500
Heat Index: 11°   Visibility: 6mi
Dew Point: 11°   Wind: 0mph
Humidity: 100%   Direction: NA
Pressure: 29.89"   Gusts: NA
Location:  47.1809°N, 122.548°W
Report Text: KTCM 301300Z AUTO 00000KT 6SM -RA BR BKN095 11/11 A2989 RMK AO2
Loading
Personal Weather Stations






























Interactive Weather Map
Tropical Storm Tracking
New forecast layout! Learn more

10-Day Weather Forecast

Advertisements
Track Severe Weather on mobile